Tiempo atmosférico en la estación meteorológica de Belmonte, Cuenca (800 m.)



Fecha
DESCASC
Temp. máxima en grados centígrados (hora)
DESCASC
Temp. mínima en grados centígrados (hora)
DESCASC
Temp. media en grados centígrados
DESCASC
Racha de viento máxima en m/sg (hora)
DESCASC
Velocidad máxima media en intervalos de 10 minutos(hora)
DESCASC
Precipitaciones diarias en mm
DESCASC
Precipitaciones de 00:00 a 06:00 en mm
DESCASC
Precipitaciones de 06:00 a 12:00 en mm
DESCASC
Precipitaciones de 12:00 a 18:00 en mm
DESCASC
Precipitaciones de 18:00 a 24:00 en mm
DESCASC
22-01-2020 10.4 (14:30) 4.5 (23:50) 7.4 10.28 (12:10) 5.83 (12:20) 1.2 1.2 0 0 0
21-01-2020 6.1 (12:30) 1.9 (06:20) 4 12.78 (13:00) 5.28 (11:10) 10.6 0 0.6 10 0
20-01-2020 7.6 (16:00) 1.4 (06:40) 4.5 13.89 (21:20) 5.83 (21:20) 0 0 0 0 0
19-01-2020 8.2 (00:00) 2.1 (00:00) 5.1 12.22 (02:10) 5 (02:10) 7 3 0 3.8 0.2
18-01-2020 10.6 (14:20) 4.2 (00:00) 7.4 8.61 (18:20) 3.89 (15:00) 2.2 0 1.6 0 0.6
17-01-2020 12.7 (13:00) 3 (00:00) 7.8 8.61 (13:30) 3.89 (13:30) 0 0 0 0 0
16-01-2020 15 (14:30) 3.3 (00:00) 9.1 5.83 (16:10) 2.5 (15:30) 0 0 0 0 0
15-01-2020 13 (14:40) -0.9 (-00:0) 6.1 6.67 (14:40) 2.78 (14:50) 0 0 0 0 0
14-01-2020 10 (14:00) -3.6 (-00:0) 3.2 5 (14:30) 1.94 (15:50) 0 0 0 0 0
13-01-2020 9.7 (15:00) -3.8 (-00:0) 2.9 4.17 (15:50) 2.22 (20:40) 0 0 0 0 0
12-01-2020 10.8 (14:20) -3.2 (-00:0) 3.8 5.28 (15:40) 2.5 (14:50) 0 0 0 0 0
11-01-2020 11.9 (14:50) -1.8 (-00:0) 5 5.83 (01:00) 2.78 (01:10) 0 0 0 0 0
10-01-2020 10.9 (14:20) 0 (00:00) 5.4 10.56 (14:50) 5 (12:50) 0 0 0 0 0
09-01-2020 10.2 (15:10) 2.2 (00:00) 6.2 8.06 (04:10) 4.72 (07:10) 0 0 0 0 0
08-01-2020 14.1 (15:00) -0.7 (-00:0) 6.7 9.44 (23:00) 5 (23:00) 0 0 0 0 0
07-01-2020 14.7 (16:20) -1.3 (-00:0) 6.7 4.72 (16:20) 2.5 (16:50) 0 0 0 0 0
06-01-2020 13.2 (14:10) 0.4 (00:00) 6.8 2.78 (01:00) 1.67 (01:00) 0 0 0 0 0
05-01-2020 12.9 (14:10) -0.9 (-00:0) 6 3.33 (02:20) 2.22 (02:20) 0 0 0 0 0
04-01-2020 12.1 (14:40) -2.2 (-00:0) 5 3.33 (13:50) 1.39 (13:50) 0.2 0 0.2 0 0
03-01-2020 7.6 (14:30) -0.8 (-00:0) 3.4 5 (12:50) 2.5 (12:20) 0 0 0 0 0
02-01-2020 12.6 (14:40) -1.9 (-00:0) 5.4 2.78 (20:50) 2.22 (23:20) 0 0 0 0 0
01-01-2020 6.3 (16:00) -2.9 (-00:0) 1.7 1.67 (14:10) 0.83 (14:10) 0 0 0 0 0
31-12-2019 11.6 (15:00) -1.1 (-00:0) 5.3 5.28 (13:20) 2.78 (13:30) 0 0 0 0 0
30-12-2019 -- (--) -- (--) -- -- (--) -- (--) -- 0 0 0 --
29-12-2019 12.3 (14:00) 1.6 (00:00) 7 5.83 (12:40) 3.33 (12:40) 0 0 0 0 0
28-12-2019 16.1 (14:50) 1.3 (00:00) 8.7 3.61 (19:00) 2.5 (19:00) 0 0 0 0 0
27-12-2019 15.9 (14:20) 5.3 (00:00) 10.6 8.33 (11:30) 3.33 (06:40) 0 0 0 0 0

Gráficas

Temp. máximas Temp. mínimas Temp. medias Precipitaciones Rachas de viento máximas Velocidades máximas media en intervalos de 10 minutos

Datos horarios

Fecha y hora oficial Temperatura (ºC) Velocidad del viento (km/h) Dirección del viento Racha (km/h) Dirección de racha Precipitación (mm) Presión (hPa) Tendencia (hPa) Humedad (%)
2020-01-25 23:00:00 6.5 0 Calma 3 Sudoeste 0.6 -- -- 99
2020-01-25 22:00:00 6.7 2 Sur 8 Sur 0.4 -- -- 97
2020-01-25 21:00:00 7 5 Sur 23 Sudeste 0.4 -- -- 96
2020-01-25 20:00:00 7.2 7 Sudeste 18 Sudeste 0.2 -- -- 96
2020-01-25 19:00:00 7.4 6 Sudeste 13 Sudeste 0 -- -- 95
2020-01-25 18:00:00 7.9 5 Sudeste 10 Sudeste 0 -- -- 93
2020-01-25 17:00:00 8.1 3 Sur 9 Sur 0 -- -- 91
2020-01-25 16:00:00 8.1 6 Sur 16 Sur 0.4 -- -- 93
2020-01-25 15:00:00 7.8 5 Sudoeste 19 Sur 0.2 -- -- 95
2020-01-25 14:00:00 7.7 10 Sur 15 Sur 0.4 -- -- 93
2020-01-25 13:00:00 7.5 6 Sudeste 18 Sudeste 0.6 -- -- 97
2020-01-25 12:00:00 7.1 7 Sudeste 24 Sudeste 1 -- -- 98
2020-01-25 11:00:00 7 10 Sudeste 26 Sudeste 0.8 -- -- 97
2020-01-25 10:00:00 6.7 10 Sudeste 21 Sudeste 0.2 -- -- 97
2020-01-25 09:00:00 6.5 12 Sudeste 26 Sudeste 0 -- -- 98
2020-01-25 08:00:00 6.3 9 Sudeste 21 Sudeste 0 -- -- 99
2020-01-25 07:00:00 6.6 9 Sudeste 25 Sudeste 0 -- -- 99
2020-01-25 06:00:00 6.7 12 Sudeste 23 Sudeste 0 -- -- 99
2020-01-25 05:00:00 6.6 9 Sudeste 26 Sudeste 0.6 -- -- 99
2020-01-25 04:00:00 6.8 13 Sudeste 27 Sudeste 0.2 -- -- 98
2020-01-25 03:00:00 6.8 11 Sudeste 24 Sudeste 0 -- -- 97
2020-01-25 02:00:00 6.8 13 Sudeste 30 Sudeste 0.2 -- -- 96
2020-01-25 01:00:00 6.9 15 Sudeste 31 Sudeste 0 -- -- 96
2020-01-25 00:00:00 6.6 15 Sudeste 27 Sudeste 0 -- -- 95
2020-01-24 23:00:00 6.8 13 Sudeste 26 Este 0 -- -- 94
2020-01-24 22:00:00 7.2 14 Sudeste 27 Este 0 -- -- 92
2020-01-24 21:00:00 7.7 12 Sudeste 21 Este 0 -- -- 90
2020-01-24 20:00:00 7.8 8 Este 15 Este 0 -- -- 89
2020-01-24 19:00:00 8.1 8 Este 14 Este 0 -- -- 88
2020-01-24 18:00:00 8.5 7 Sudeste 19 Sudeste 0 -- -- 85
2020-01-24 17:00:00 8.9 9 Sudeste 20 Sudeste 0 -- -- 82
2020-01-24 16:00:00 9.7 10 Sudeste 19 Sudeste 0 -- -- 80
2020-01-24 15:00:00 9.1 9 Sudeste 21 Sudeste 0 -- -- 82
2020-01-24 14:00:00 8.3 11 Sudeste 22 Sudeste 0 -- -- 85
2020-01-24 13:00:00 7.4 13 Sudeste 28 Sudeste 0 -- -- 88
2020-01-24 12:00:00 7.2 14 Sudeste 26 Sudeste 0 -- -- 88
2020-01-24 11:00:00 6.5 13 Sudeste 24 Sudeste 0 -- -- 90
2020-01-24 10:00:00 5.1 13 Sudeste 25 Sudeste 0 -- -- 92
2020-01-24 09:00:00 5.2 11 Sudeste 23 Este 0 -- -- 91
2020-01-24 08:00:00 5.3 15 Sudeste 27 Sudeste 0 -- -- 91
2020-01-24 07:00:00 5.1 18 Sudeste 32 Sudeste 0 -- -- 92
2020-01-24 06:00:00 5.4 17 Sudeste 32 Sudeste 0 -- -- 92
2020-01-24 05:00:00 5.6 20 Sudeste 41 Sudeste 0 -- -- 92
2020-01-24 04:00:00 5.9 23 Sudeste 44 Este 0 -- -- 92
2020-01-24 03:00:00 6.4 19 Sudeste 39 Sudeste 0 -- -- 91
2020-01-24 02:00:00 6.3 19 Sudeste 33 Sudeste 0 -- -- 93
2020-01-24 01:00:00 6.2 18 Sudeste 30 Sudeste 0 -- -- 93
2020-01-24 00:00:00 6 15 Sudeste 31 Este 0 -- -- 94
2020-01-23 23:00:00 6.3 18 Sudeste 34 Sudeste 0 -- -- 93
2020-01-23 22:00:00 6.2 19 Sudeste 32 Sudeste 0 -- -- 91
2020-01-23 21:00:00 6.5 15 Sudeste 33 Sudeste 0 -- -- 88
2020-01-23 20:00:00 7 17 Sudeste 32 Este 0 -- -- 86
2020-01-23 19:00:00 7.4 14 Sudeste 26 Sudeste 0 -- -- 84
2020-01-23 18:00:00 8.6 14 Sudeste 26 Sudeste 0 -- -- 78
2020-01-23 17:00:00 9.7 14 Sudeste 26 Sudeste 0 -- -- 73
2020-01-23 16:00:00 10.4 10 Sudeste 22 Sudeste 0 -- -- 74
2020-01-23 15:00:00 9.8 15 Sudeste 26 Este 0 -- -- 76
2020-01-23 14:00:00 9 15 Sudeste 26 Sudeste 0 -- -- 78
2020-01-23 13:00:00 7.9 14 Sudeste 26 Sudeste 0 -- -- 82
2020-01-23 12:00:00 6.7 13 Sudeste 29 Sudeste 0 -- -- 88
2020-01-23 11:00:00 6.2 13 Sudeste 30 Este 0 -- -- 91
2020-01-23 10:00:00 4.2 15 Sudeste 28 Este 0 -- -- 100
2020-01-23 09:00:00 3.2 15 Sudeste 27 Sudeste 0 -- -- 99
2020-01-23 08:00:00 3.4 14 Sudeste 30 Sudeste 0 -- -- 96
2020-01-23 07:00:00 3.5 12 Este 20 Sudeste 0 -- -- 93
2020-01-23 06:00:00 3.5 12 Este 21 Este 0 -- -- 92
2020-01-23 05:00:00 3.8 12 Este 21 Este 0 -- -- 90
2020-01-23 04:00:00 3.8 12 Este 22 Este 0 -- -- 88
2020-01-23 03:00:00 4 14 Este 23 Este 0 -- -- 87
2020-01-23 02:00:00 4.1 13 Este 22 Este 0 -- -- 87
2020-01-23 01:00:00 4.3 12 Este 24 Este 0 -- -- 87
2020-01-23 00:00:00 4.5 15 Este 25 Este 0 -- -- 86
2020-01-22 23:00:00 4.9 13 Este 24 Este 0 -- -- 84
2020-01-22 22:00:00 5.2 10 Este 23 Nordeste 0 -- -- 86
2020-01-22 21:00:00 5.6 11 Este 21 Sudeste 0 -- -- 85
2020-01-22 20:00:00 6.2 12 Este 23 Este 0 -- -- 83
2020-01-22 19:00:00 6.8 9 Este 16 Este 0 -- -- 83
2020-01-22 18:00:00 8.6 7 Sudeste 23 Sudeste 0 -- -- 73
2020-01-22 17:00:00 9.4 13 Sudeste 28 Sudeste 0 -- -- 71
2020-01-22 16:00:00 10 14 Sudeste 33 Sudeste 0 -- -- 66
2020-01-22 15:00:00 10.2 18 Sudeste 31 Sudeste 0 -- -- 70
2020-01-22 14:00:00 9.6 15 Sudeste 31 Sudeste 0 -- -- 73
2020-01-22 13:00:00 9.2 19 Sudeste 37 Este 0 -- -- 75
2020-01-22 12:00:00 7.8 19 Este 36 Sudeste 0 -- -- 83
2020-01-22 11:00:00 6.6 10 Este 22 Sudeste 0 -- -- 93
2020-01-22 10:00:00 6 10 Sudeste 23 Este 0 -- -- 95
2020-01-22 09:00:00 5.7 13 Sudeste 31 Sudeste 0 -- -- 95
2020-01-22 08:00:00 5.4 14 Este 30 Este 0 -- -- 95
2020-01-22 07:00:00 5.4 13 Este 27 Este 0 -- -- 95
2020-01-22 06:00:00 5.2 11 Este 26 Este 0.2 -- -- 96
2020-01-22 05:00:00 5.2 19 Sudeste 33 Sudeste 0.8 -- -- 94
2020-01-22 04:00:00 5.6 15 Este 34 Este 0 -- -- 94
2020-01-22 03:00:00 5.6 9 Este 30 Este 0.2 -- -- 92
2020-01-22 02:00:00 5.6 13 Este 28 Sudeste 0 -- -- 91
2020-01-22 01:00:00 5.5 11 Este 28 Este 0 -- -- 90
2020-01-22 00:00:00 4.9 8 Este 34 Este 0 -- -- 88
2020-01-21 23:00:00 5.2 9 Este 29 Este 0 -- -- 85
2020-01-21 22:00:00 4.9 10 Este 32 Este 0 -- -- 85
2020-01-21 21:00:00 4.8 9 Este 31 Este 0 -- -- 86
2020-01-21 20:00:00 4.5 11 Este 39 Nordeste 0 -- -- 87
2020-01-21 19:00:00 3.7 10 Nordeste 31 Este 0 -- -- 91
2020-01-21 18:00:00 3.6 11 Nordeste 32 Nordeste 0.6 -- -- 94
2020-01-21 17:00:00 3.7 7 Este 28 Este 2.4 -- -- 94
2020-01-21 16:00:00 3.6 13 Nordeste 34 Nordeste 1.6 -- -- 93
2020-01-21 15:00:00 4.1 12 Nordeste 38 Este 2.6 -- -- 92
2020-01-21 14:00:00 4.1 15 Nordeste 38 Nordeste 2 -- -- 90
2020-01-21 13:00:00 5.1 17 Este 46 Este 0.8 -- -- 81
2020-01-21 12:00:00 5.8 14 Nordeste 43 Nordeste 0 -- -- 78
2020-01-21 11:00:00 4.9 13 Nordeste 40 Nordeste 0.2 -- -- 81
2020-01-21 10:00:00 3.4 8 Nordeste 22 Nordeste 0.4 -- -- 82
2020-01-21 09:00:00 3.9 8 Norte 28 Norte 0 -- -- 71
2020-01-21 08:00:00 3.3 12 Norte 27 Nordeste 0 -- -- 72
2020-01-21 07:00:00 2 7 Norte 20 Norte 0 -- -- 79
2020-01-21 06:00:00 2.2 10 Norte 22 Nordeste 0 -- -- 76
2020-01-21 05:00:00 3.9 11 Nordeste 36 Nordeste 0 -- -- 70
2020-01-21 04:00:00 3.3 12 Nordeste 26 Nordeste 0 -- -- 72
2020-01-21 03:00:00 3.9 9 Nordeste 28 Nordeste 0 -- -- 76
2020-01-21 02:00:00 4.5 8 Este 38 Nordeste 0 -- -- 67
2020-01-21 01:00:00 4.7 13 Nordeste 35 Nordeste 0 -- -- 66
2020-01-21 00:00:00 4.6 13 Nordeste 29 Nordeste 0 -- -- 66
2020-01-20 23:00:00 4.6 10 Nordeste 31 Este 0 -- -- 66
2020-01-20 22:00:00 4.9 9 Este 50 Este 0 -- -- 66
2020-01-20 21:00:00 5.1 14 Este 39 Este 0 -- -- 64
2020-01-20 20:00:00 4.4 9 Nordeste 30 Nordeste 0 -- -- 67
2020-01-20 19:00:00 5.1 8 Nordeste 24 Este 0 -- -- 66
2020-01-20 18:00:00 6.7 7 Este 39 Nordeste 0 -- -- 62
2020-01-20 17:00:00 7.1 8 Nordeste 40 Este 0 -- -- 61
2020-01-20 16:00:00 7.6 12 Nordeste 48 Este 0 -- -- 58
2020-01-20 15:00:00 7.4 15 Este 45 Este 0 -- -- 58
2020-01-20 14:00:00 6 10 Este 31 Nordeste 0 -- -- 61
2020-01-20 13:00:00 6.1 10 Nordeste 26 Nordeste 0 -- -- 61
2020-01-20 12:00:00 4.3 7 Nordeste 27 Nordeste 0 -- -- 64
2020-01-20 11:00:00 2.8 4 Nordeste 14 Nordeste 0 -- -- 65
2020-01-20 10:00:00 1.7 3 Norte 17 Nordeste 0 -- -- 64
2020-01-20 09:00:00 1.5 7 Norte 21 Norte 0 -- -- 63
2020-01-20 08:00:00 1.6 9 Norte 24 Norte 0 -- -- 62
2020-01-20 07:00:00 1.5 10 Norte 24 Nordeste 0 -- -- 60
2020-01-20 06:00:00 1.5 12 Norte 27 Nordeste 0 -- -- 60
2020-01-20 05:00:00 1.6 15 Norte 32 Norte 0 -- -- 61
2020-01-20 04:00:00 1.6 14 Norte 34 Nordeste 0 -- -- 62
2020-01-20 03:00:00 1.6 12 Norte 32 Nordeste 0 -- -- 64
2020-01-20 02:00:00 2.1 11 Norte 29 Norte 0 -- -- 62
2020-01-20 01:00:00 2.2 8 Norte 25 Nordeste 0 -- -- 63
2020-01-20 00:00:00 2.4 9 Norte 20 Norte 0 -- -- 64
2020-01-19 23:00:00 3 11 Norte 28 Norte 0 -- -- 61
2020-01-19 22:00:00 3.2 7 Norte 24 Norte 0 -- -- 68
2020-01-19 21:00:00 2.2 5 Nordeste 24 Nordeste 0.2 -- -- 90
2020-01-19 20:00:00 3.9 9 Nordeste 38 Nordeste 0 -- -- 74
2020-01-19 19:00:00 4 9 Nordeste 25 Norte 0 -- -- 80
2020-01-19 18:00:00 4.4 6 Nordeste 19 Norte 0 -- -- 87
2020-01-19 17:00:00 4.6 8 Nordeste 21 Norte 0.2 -- -- 88
2020-01-19 16:00:00 4.3 8 Nordeste 30 Nordeste 1.6 -- -- 93
2020-01-19 15:00:00 4.9 8 Nordeste 28 Nordeste 1.4 -- -- 94
2020-01-19 14:00:00 5.2 12 Norte 29 Nordeste 0.6 -- -- 92
2020-01-19 13:00:00 6.4 10 Norte 31 Norte 0 -- -- 84
2020-01-19 12:00:00 6.1 15 Norte 32 Norte 0 -- -- 88
2020-01-19 11:00:00 5.8 14 Norte 29 Noroeste 0 -- -- 90
2020-01-19 10:00:00 4.1 13 Norte 25 Norte 0 -- -- 94
2020-01-19 09:00:00 2.5 6 Norte 14 Norte 0 -- -- 98
2020-01-19 08:00:00 2.5 3 Noroeste 9 Noroeste 0 -- -- 96
2020-01-19 07:00:00 3.3 3 Norte 11 Norte 0 -- -- 97
2020-01-19 06:00:00 3.9 3 Norte 9 Norte 0 -- -- 98
2020-01-19 05:00:00 5.1 4 Noroeste 15 Noroeste 0 -- -- 98
2020-01-19 04:00:00 5.7 4 Norte 17 Noroeste 0.2 -- -- 98
2020-01-19 03:00:00 6 11 Noroeste 44 Noroeste 2.2 -- -- 99
2020-01-19 02:00:00 7.1 15 Noroeste 41 Noroeste 0.2 -- -- 85
2020-01-19 01:00:00 7.9 4 Oeste 10 Oeste 0.4 -- -- 97
2020-01-19 00:00:00 8.2 3 Oeste 26 Oeste 0 -- -- 93
2020-01-18 23:00:00 8.7 9 Noroeste 19 Noroeste 0 -- -- 99
2020-01-18 22:00:00 8.8 6 Sudoeste 22 Oeste 0 -- -- 99
2020-01-18 21:00:00 8.8 9 Oeste 24 Sudoeste 0 -- -- 100
2020-01-18 20:00:00 8.5 9 Sudoeste 24 Sudoeste 0.4 -- -- 100
2020-01-18 19:00:00 8.3 8 Sudoeste 31 Sudoeste 0.2 -- -- 99
2020-01-18 18:00:00 8.5 12 Sudoeste 28 Sudoeste 0 -- -- 97
2020-01-18 17:00:00 8.9 10 Sudoeste 29 Sudoeste 0 -- -- 93
2020-01-18 16:00:00 9.2 10 Sudoeste 30 Sudoeste 0 -- -- 91
2020-01-18 15:00:00 9.8 14 Oeste 30 Sudoeste 0 -- -- 88
2020-01-18 14:00:00 10.2 7 Oeste 22 Sudoeste 0 -- -- 87
2020-01-18 13:00:00 9.5 6 Sudoeste 17 Sudoeste 0 -- -- 90
2020-01-18 12:00:00 7.5 6 Sur 12 Sudeste 0.2 -- -- 95
2020-01-18 11:00:00 6 6 Sudeste 16 Sudeste 0 -- -- 96
2020-01-18 10:00:00 5.6 5 Sudeste 12 Sudeste 0 -- -- 97
2020-01-18 09:00:00 4.8 3 Sur 5 Sudeste 1.2 -- -- 98
2020-01-18 08:00:00 4.3 0 Calma 9 Sur 0.2 -- -- 95
2020-01-18 07:00:00 4.7 0 Calma 10 Nordeste 0 -- -- 93
2020-01-18 06:00:00 5 4 Nordeste 9 Nordeste 0 -- -- 94
2020-01-18 05:00:00 4.8 0 Calma 5 Este 0 -- -- 93
2020-01-18 04:00:00 4.8 0 Calma 10 Este 0 -- -- 91
2020-01-18 03:00:00 5.2 3 Sudeste 10 Este 0 -- -- 91
2020-01-18 02:00:00 4.7 3 Sudeste 6 Nordeste 0 -- -- 93
2020-01-18 01:00:00 4.3 0 Calma 6 Sudoeste 0 -- -- 92
2020-01-18 00:00:00 4.7 2 Nordeste 7 Nordeste 0 -- -- 91
2020-01-17 23:00:00 4.1 2 Nordeste 7 Nordeste 0 -- -- 90
2020-01-17 22:00:00 5.8 2 Norte 6 Nordeste 0 -- -- 85
2020-01-17 21:00:00 5.3 4 Nordeste 9 Nordeste 0 -- -- 85
2020-01-17 20:00:00 6.1 4 Nordeste 9 Nordeste 0 -- -- 80
2020-01-17 19:00:00 8.2 3 Norte 11 Noroeste 0 -- -- 75
2020-01-17 18:00:00 9.9 5 Noroeste 19 Noroeste 0 -- -- 69
2020-01-17 17:00:00 11.5 7 Noroeste 25 Noroeste 0 -- -- 64
2020-01-17 16:00:00 12.1 12 Noroeste 24 Noroeste 0 -- -- 62
2020-01-17 15:00:00 12.2 11 Noroeste 27 Oeste 0 -- -- 61
2020-01-17 14:00:00 12.2 12 Oeste 31 Oeste 0 -- -- 59
2020-01-17 13:00:00 12.7 9 Oeste 26 Oeste 0 -- -- 63
2020-01-17 12:00:00 10.4 11 Oeste 31 Oeste 0 -- -- 73
2020-01-17 11:00:00 8.6 0 Calma 8 Oeste 0 -- -- 73
2020-01-17 10:00:00 6.8 0 Calma 4 Oeste 0 -- -- 73
2020-01-17 09:00:00 4 0 Calma 8 Oeste 0 -- -- 79
2020-01-17 08:00:00 3.2 0 Calma 5 Noroeste 0 -- -- 79
2020-01-17 07:00:00 4 0 Calma 6 Oeste 0 -- -- 75
2020-01-17 06:00:00 4.5 0 Calma 8 Sudoeste 0 -- -- 73
2020-01-17 05:00:00 5 4 Sudoeste 13 Sudoeste 0 -- -- 71
2020-01-17 04:00:00 4.9 0 Calma 9 Oeste 0 -- -- 74
2020-01-17 03:00:00 4.8 3 Sudoeste 7 Sudoeste 0 -- -- 72
2020-01-17 02:00:00 4.3 0 Calma 6 Nordeste 0 -- -- 73
2020-01-17 01:00:00 5.1 2 Sudeste 9 Sur 0 -- -- 69
2020-01-17 00:00:00 6 5 Sudeste 8 Sur 0 -- -- 66
2020-01-16 23:00:00 7 3 Sur 10 Sur 0 -- -- 63
2020-01-16 22:00:00 7.2 4 Sur 9 Sur 0 -- -- 64
2020-01-16 21:00:00 6.2 3 Sur 7 Sudeste 0 -- -- 72
2020-01-16 20:00:00 7.3 0 Calma 4 Este 0 -- -- 64
2020-01-16 19:00:00 9.6 0 Calma 9 Sudoeste 0 -- -- 55
2020-01-16 18:00:00 11.7 2 Sudoeste 16 Sudoeste 0 -- -- 50
2020-01-16 17:00:00 13.5 8 Oeste 21 Sur 0 -- -- 43
2020-01-16 16:00:00 14.2 7 Sudoeste 21 Sudoeste 0 -- -- 44
2020-01-16 15:00:00 15 6 Sudoeste 19 Sudoeste 0 -- -- 44
2020-01-16 14:00:00 14.8 6 Sudoeste 15 Oeste 0 -- -- 54
2020-01-16 13:00:00 14.3 4 Sudoeste 10 Sudoeste 0 -- -- 58
2020-01-16 12:00:00 12.4 5 Sur 9 Sur 0 -- -- 60
2020-01-16 11:00:00 10.2 3 Sudeste 6 Sudeste 0 -- -- 66
2020-01-16 10:00:00 5.9 0 Calma 13 Sudeste 0 -- -- 80
2020-01-16 09:00:00 4.4 5 Este 13 Este 0 -- -- 87
2020-01-16 08:00:00 3.5 4 Este 8 Este 0 -- -- 88
2020-01-16 07:00:00 3.5 3 Nordeste 6 Nordeste 0 -- -- 88
2020-01-16 06:00:00 3.9 2 Este 5 Este 0 -- -- 88
2020-01-16 05:00:00 4.2 0 Calma 5 Este 0 -- -- 87
2020-01-16 04:00:00 5.2 0 Calma 5 Nordeste 0 -- -- 86
2020-01-16 03:00:00 6 4 Este 6 Nordeste 0 -- -- 86
2020-01-16 02:00:00 7.2 3 Sudeste 6 Sudeste 0 -- -- 83
2020-01-16 01:00:00 8 3 Este 4 Nordeste 0 -- -- 84
2020-01-16 00:00:00 8.3 2 Sur 6 Sudoeste 0 -- -- 83
2020-01-15 23:00:00 8.6 2 Nordeste 4 Nordeste 0 -- -- 81
2020-01-15 22:00:00 8.4 0 Calma 5 Nordeste 0 -- -- 80
2020-01-15 21:00:00 8.6 0 Calma 4 Nordeste 0 -- -- 78
2020-01-15 20:00:00 9.2 0 Calma 4 Sudeste 0 -- -- 75
2020-01-15 19:00:00 9.7 0 Calma 3 Sur 0 -- -- 72
2020-01-15 18:00:00 10.6 0 Calma 11 Sudoeste 0 -- -- 69
2020-01-15 17:00:00 11.5 5 Oeste 15 Sudoeste 0 -- -- 64
2020-01-15 16:00:00 11.7 4 Oeste 17 Oeste 0 -- -- 62
2020-01-15 15:00:00 12 7 Oeste 24 Oeste 0 -- -- 59
2020-01-15 14:00:00 11.3 9 Sudoeste 22 Sudoeste 0 -- -- 59
2020-01-15 13:00:00 10.4 3 Sur 9 Noroeste 0 -- -- 66
2020-01-15 12:00:00 9.1 3 Oeste 8 Oeste 0 -- -- 69
2020-01-15 11:00:00 6.4 3 Sur 6 Sur 0 -- -- 80
2020-01-15 10:00:00 2.1 0 Calma 8 Nordeste 0 -- -- 92
2020-01-15 09:00:00 -0.6 4 Nordeste 9 Nordeste 0 -- -- 97
2020-01-15 08:00:00 -0.7 5 Nordeste 10 Nordeste 0 -- -- 97
2020-01-15 07:00:00 -0.5 4 Nordeste 9 Nordeste 0 -- -- 96
2020-01-15 06:00:00 0.3 5 Nordeste 6 Nordeste 0 -- -- 95
2020-01-15 05:00:00 1.4 0 Calma 4 Este 0 -- -- 93
2020-01-15 04:00:00 1.4 0 Calma 4 Este 0 -- -- 94
2020-01-15 03:00:00 0.7 0 Calma 8 Nordeste 0 -- -- 94
2020-01-15 02:00:00 -0.1 0 Calma 8 Nordeste 0 -- -- 94
2020-01-15 01:00:00 0 5 Nordeste 7 Nordeste 0 -- -- 92
2020-01-15 00:00:00 0.5 0 Calma 4 Sudeste 0 -- -- 91
2020-01-14 23:00:00 0.6 3 Este 8 Nordeste 0 -- -- 90
2020-01-14 22:00:00 1 5 Nordeste 8 Nordeste 0 -- -- 88
2020-01-14 21:00:00 2 3 Este 6 Nordeste 0 -- -- 86
2020-01-14 20:00:00 3.2 4 Este 7 Nordeste 0 -- -- 82
2020-01-14 19:00:00 5.7 0 Calma 3 Sudoeste 0 -- -- 76
2020-01-14 18:00:00 7.1 2 Oeste 12 Sudoeste 0 -- -- 70
2020-01-14 17:00:00 8.5 6 Oeste 14 Sudoeste 0 -- -- 65
2020-01-14 16:00:00 9.2 6 Oeste 15 Oeste 0 -- -- 62
2020-01-14 15:00:00 9.8 5 Oeste 18 Oeste 0 -- -- 60
2020-01-14 14:00:00 10 6 Oeste 14 Sudoeste 0 -- -- 60
2020-01-14 13:00:00 9 4 Oeste 9 Sudoeste 0 -- -- 63
2020-01-14 12:00:00 8.3 0 Calma 3 Sudoeste 0 -- -- 66
2020-01-14 11:00:00 4.9 0 Calma 4 Nordeste 0 -- -- 77
2020-01-14 10:00:00 0.7 4 Nordeste 9 Nordeste 0 -- -- 88
2020-01-14 09:00:00 -3.2 4 Nordeste 9 Nordeste 0 -- -- 95
2020-01-14 08:00:00 -3.3 5 Nordeste 9 Nordeste 0 -- -- 96
2020-01-14 07:00:00 -3.5 5 Nordeste 8 Nordeste 0 -- -- 95
2020-01-14 06:00:00 -3.3 3 Nordeste 8 Nordeste 0 -- -- 94
2020-01-14 05:00:00 -2.9 5 Nordeste 8 Nordeste 0 -- -- 95
2020-01-14 04:00:00 -2.7 5 Nordeste 8 Nordeste 0 -- -- 94
2020-01-14 03:00:00 -2.3 2 Este 8 Nordeste 0 -- -- 92
2020-01-14 02:00:00 -1.7 6 Nordeste 9 Nordeste 0 -- -- 93
2020-01-14 01:00:00 -1.3 5 Nordeste 8 Nordeste 0 -- -- 92
2020-01-14 00:00:00 -0.4 0 Calma 5 Nordeste 0 -- -- 89
2020-01-13 23:00:00 0.2 2 Este 9 Nordeste 0 -- -- 88
2020-01-13 22:00:00 0.9 5 Nordeste 12 Nordeste 0 -- -- 86
2020-01-13 21:00:00 1.3 5 Nordeste 12 Nordeste 0 -- -- 85
2020-01-13 20:00:00 2.2 5 Nordeste 10 Nordeste 0 -- -- 82
2020-01-13 19:00:00 4.5 4 Nordeste 7 Nordeste 0 -- -- 74
2020-01-13 18:00:00 7.7 0 Calma 9 Oeste 0 -- -- 63
2020-01-13 17:00:00 8.7 3 Oeste 13 Oeste 0 -- -- 59
2020-01-13 16:00:00 9.2 5 Oeste 15 Oeste 0 -- -- 56
2020-01-13 15:00:00 9.7 5 Oeste 12 Oeste 0 -- -- 53
2020-01-13 14:00:00 8.2 4 Sudoeste 10 Sudoeste 0 -- -- 58
2020-01-13 13:00:00 7.1 2 Sudoeste 4 Sudoeste 0 -- -- 62
2020-01-13 12:00:00 5.7 2 Oeste 4 Oeste 0 -- -- 64
2020-01-13 11:00:00 3.6 0 Calma 2 Nordeste 0 -- -- 71
2020-01-13 10:00:00 0.6 0 Calma 6 Nordeste 0 -- -- 81
2020-01-13 09:00:00 -3.3 4 Nordeste 9 Nordeste 0 -- -- 91
2020-01-13 08:00:00 -3.5 4 Nordeste 9 Nordeste 0 -- -- 91
2020-01-13 07:00:00 -3.8 4 Nordeste 9 Este 0 -- -- 90
2020-01-13 06:00:00 -3.7 5 Nordeste 9 Nordeste 0 -- -- 89
2020-01-13 05:00:00 -3.2 3 Nordeste 9 Nordeste 0 -- -- 88
2020-01-13 04:00:00 -3.2 5 Nordeste 8 Nordeste 0 -- -- 87
2020-01-13 03:00:00 -2.7 3 Nordeste 7 Nordeste 0 -- -- 86
2020-01-13 02:00:00 -2.1 4 Nordeste 9 Nordeste 0 -- -- 85
2020-01-13 01:00:00 -1.5 5 Nordeste 10 Nordeste 0 -- -- 85
2020-01-13 00:00:00 -0.8 3 Nordeste 9 Nordeste 0 -- -- 83
2020-01-12 23:00:00 -0.4 3 Este 9 Nordeste 0 -- -- 83
2020-01-12 22:00:00 0.1 4 Nordeste 10 Nordeste 0 -- -- 82
2020-01-12 21:00:00 0.9 5 Nordeste 10 Nordeste 0 -- -- 81
2020-01-12 20:00:00 2.2 4 Nordeste 8 Nordeste 0 -- -- 76
2020-01-12 19:00:00 5.4 3 Nordeste 5 Nordeste 0 -- -- 66
2020-01-12 18:00:00 7.9 2 Noroeste 14 Noroeste 0 -- -- 57
2020-01-12 17:00:00 9.5 5 Noroeste 12 Noroeste 0 -- -- 50
2020-01-12 16:00:00 9.9 7 Noroeste 19 Noroeste 0 -- -- 46
2020-01-12 15:00:00 10.5 9 Noroeste 19 Noroeste 0 -- -- 45
2020-01-12 14:00:00 10.5 8 Noroeste 15 Noroeste 0 -- -- 46
2020-01-12 13:00:00 9.3 4 Oeste 10 Oeste 0 -- -- 62
2020-01-12 12:00:00 6.9 3 Oeste 5 Oeste 0 -- -- 66
2020-01-12 11:00:00 4.3 2 Noroeste 4 Noroeste 0 -- -- 74
2020-01-12 10:00:00 1.2 0 Calma 6 Nordeste 0 -- -- 80
2020-01-12 09:00:00 -3.1 5 Nordeste 8 Nordeste 0 -- -- 93
2020-01-12 08:00:00 -3.2 6 Nordeste 10 Nordeste 0 -- -- 92
2020-01-12 07:00:00 -3.1 5 Nordeste 8 Nordeste 0 -- -- 90
2020-01-12 06:00:00 -2.9 3 Nordeste 7 Nordeste 0 -- -- 89
2020-01-12 05:00:00 -2.5 2 Nordeste 5 Nordeste 0 -- -- 89
2020-01-12 04:00:00 -1.2 0 Calma 7 Nordeste 0 -- -- 84
2020-01-12 03:00:00 -0.5 4 Nordeste 6 Nordeste 0 -- -- 83
2020-01-12 02:00:00 0 3 Nordeste 9 Nordeste 0 -- -- 82
2020-01-12 01:00:00 0.4 4 Nordeste 10 Nordeste 0 -- -- 84
2020-01-12 00:00:00 0.6 6 Nordeste 11 Nordeste 0 -- -- 83
2020-01-11 23:00:00 1 0 Calma 8 Nordeste 0 -- -- 80
2020-01-11 22:00:00 1.8 4 Nordeste 7 Nordeste 0 -- -- 78
2020-01-11 21:00:00 2.9 2 Nordeste 4 Nordeste 0 -- -- 74
2020-01-11 20:00:00 4.7 3 Nordeste 8 Noroeste 0 -- -- 69
2020-01-11 19:00:00 6.4 2 Nordeste 4 Noroeste 0 -- -- 64
2020-01-11 18:00:00 8.7 3 Noroeste 17 Noroeste 0 -- -- 57
2020-01-11 17:00:00 10.4 9 Noroeste 15 Noroeste 0 -- -- 52
2020-01-11 16:00:00 10.9 6 Oeste 14 Sudoeste 0 -- -- 54
2020-01-11 15:00:00 11.6 4 Oeste 10 Oeste 0 -- -- 50
2020-01-11 14:00:00 11.4 3 Oeste 9 Sur 0 -- -- 52
2020-01-11 13:00:00 10.4 3 Oeste 6 Oeste 0 -- -- 56
2020-01-11 12:00:00 8.1 2 Sudoeste 6 Sudoeste 0 -- -- 63
2020-01-11 11:00:00 5.3 0 Calma 3 Sudoeste 0 -- -- 70
2020-01-11 10:00:00 2.7 0 Calma 4 Noroeste 0 -- -- 78
2020-01-11 09:00:00 -1.7 2 Nordeste 6 Nordeste 0 -- -- 92
2020-01-11 08:00:00 -1.4 4 Nordeste 6 Nordeste 0 -- -- 90
2020-01-11 07:00:00 -1.1 0 Calma 6 Sudoeste 0 -- -- 90
2020-01-11 06:00:00 -0.7 2 Sudeste 8 Nordeste 0 -- -- 87
2020-01-11 05:00:00 1.2 2 Norte 19 Nordeste 0 -- -- 83
2020-01-11 04:00:00 1.8 8 Nordeste 20 Nordeste 0 -- -- 82
2020-01-11 03:00:00 1.6 4 Norte 13 Nordeste 0 -- -- 82
2020-01-11 02:00:00 2.2 6 Nordeste 17 Nordeste 0 -- -- 81
2020-01-11 01:00:00 3.1 8 Nordeste 21 Norte 0 -- -- 77
2020-01-11 00:00:00 2.8 7 Nordeste 15 Nordeste 0 -- -- 77
2020-01-10 23:00:00 3.4 4 Norte 12 Norte 0 -- -- 74
2020-01-10 22:00:00 4.8 5 Norte 13 Norte 0 -- -- 68
2020-01-10 21:00:00 5.2 3 Norte 13 Norte 0 -- -- 66
2020-01-10 20:00:00 6.2 4 Norte 17 Nordeste 0 -- -- 62
2020-01-10 19:00:00 7.2 6 Norte 15 Norte 0 -- -- 57
2020-01-10 18:00:00 8.9 8 Norte 24 Nordeste 0 -- -- 52
2020-01-10 17:00:00 10 12 Norte 29 Norte 0 -- -- 48
2020-01-10 16:00:00 10.4 13 Norte 33 Norte 0 -- -- 45
2020-01-10 15:00:00 10.8 13 Nordeste 38 Nordeste 0 -- -- 46
2020-01-10 14:00:00 10.8 10 Norte 30 Norte 0 -- -- 50
2020-01-10 13:00:00 10 16 Norte 32 Norte 0 -- -- 53
2020-01-10 12:00:00 9.1 10 Norte 24 Norte 0 -- -- 60
2020-01-10 11:00:00 7.1 7 Norte 21 Nordeste 0 -- -- 70
2020-01-10 10:00:00 3.6 8 Norte 16 Norte 0 -- -- 88
2020-01-10 09:00:00 1.9 6 Norte 16 Norte 0 -- -- 96
2020-01-10 08:00:00 2.3 6 Norte 13 Norte 0 -- -- 97
2020-01-10 07:00:00 1.8 4 Norte 11 Norte 0 -- -- 100
2020-01-10 06:00:00 0.2 0 Calma 4 Nordeste 0 -- -- 97
2020-01-10 05:00:00 1.2 0 Calma 6 Nordeste 0 -- -- 97
2020-01-10 04:00:00 1.6 0 Calma 7 Nordeste 0 -- -- 97
2020-01-10 03:00:00 1.8 0 Calma 7 Nordeste 0 -- -- 96
2020-01-10 02:00:00 1.5 5 Nordeste 8 Nordeste 0 -- -- 98
2020-01-10 01:00:00 1.1 4 Nordeste 6 Nordeste 0 -- -- 95
2020-01-10 00:00:00 2.2 0 Calma 8 Nordeste 0 -- -- 94
2020-01-09 23:00:00 2.8 5 Nordeste 8 Nordeste 0 -- -- 94
2020-01-09 22:00:00 3.4 4 Nordeste 6 Nordeste 0 -- -- 92
2020-01-09 21:00:00 3.8 0 Calma 4 Nordeste 0 -- -- 88
2020-01-09 20:00:00 5.5 0 Calma 5 Sudeste 0 -- -- 85
2020-01-09 19:00:00 7 0 Calma 5 Oeste 0 -- -- 80
2020-01-09 18:00:00 9 2 Oeste 8 Oeste 0 -- -- 74
2020-01-09 17:00:00 9.8 4 Noroeste 11 Sur 0 -- -- 73
2020-01-09 16:00:00 10.1 5 Sudoeste 14 Sur 0 -- -- 70
2020-01-09 15:00:00 10.1 5 Sur 12 Sur 0 -- -- 66
2020-01-09 14:00:00 8.9 4 Sur 15 Sudeste 0 -- -- 74
2020-01-09 13:00:00 7.1 11 Sudeste 20 Sudeste 0 -- -- 81
2020-01-09 12:00:00 6.8 10 Sudeste 26 Este 0 -- -- 81
2020-01-09 11:00:00 5.1 13 Sudeste 28 Este 0 -- -- 86
2020-01-09 10:00:00 5.2 6 Sudeste 14 Sudeste 0 -- -- 87
2020-01-09 09:00:00 3 2 Noroeste 8 Noroeste 0 -- -- 92
2020-01-09 08:00:00 4.3 3 Este 26 Este 0 -- -- 87
2020-01-09 07:00:00 4.7 16 Este 27 Este 0 -- -- 85
2020-01-09 06:00:00 5 15 Este 25 Este 0 -- -- 83
2020-01-09 05:00:00 5.4 13 Este 29 Este 0 -- -- 80
2020-01-09 04:00:00 5.7 15 Este 28 Sudeste 0 -- -- 78
2020-01-09 03:00:00 6 12 Este 22 Este 0 -- -- 74
2020-01-09 02:00:00 5.9 6 Este 24 Sudeste 0 -- -- 76
2020-01-09 01:00:00 6.3 15 Este 24 Sudeste 0 -- -- 74
2020-01-09 00:00:00 6.5 10 Este 32 Este 0 -- -- 75
2020-01-08 23:00:00 6.9 18 Este 34 Este 0 -- -- 75
2020-01-08 22:00:00 7.1 14 Este 28 Este 0 -- -- 78
2020-01-08 21:00:00 7.7 13 Este 25 Este 0 -- -- 82
2020-01-08 20:00:00 8.5 12 Este 22 Este 0 -- -- 78
2020-01-08 19:00:00 9.4 8 Este 15 Nordeste 0 -- -- 72
2020-01-08 18:00:00 11.3 8 Este 19 Sudeste 0 -- -- 61
2020-01-08 17:00:00 13 11 Sudeste 23 Este 0 -- -- 48
2020-01-08 16:00:00 13.9 12 Sudeste 25 Sudeste 0 -- -- 49
2020-01-08 15:00:00 14.1 11 Sudeste 20 Sudeste 0 -- -- 47
2020-01-08 14:00:00 13.8 6 Sur 10 Sudoeste 0 -- -- 47
2020-01-08 13:00:00 12.4 0 Calma 6 Noroeste 0 -- -- 49
2020-01-08 12:00:00 8.9 5 Noroeste 8 Noroeste 0 -- -- 65
2020-01-08 11:00:00 6 2 Sudoeste 4 Sudoeste 0 -- -- 73
2020-01-08 10:00:00 1.2 0 Calma 4 Nordeste 0 -- -- 80
2020-01-08 09:00:00 -0.4 4 Nordeste 7 Nordeste 0 -- -- 82
2020-01-08 08:00:00 -0.4 0 Calma 8 Nordeste 0 -- -- 81
2020-01-08 07:00:00 -0.2 2 Nordeste 6 Nordeste 0 -- -- 79
2020-01-08 06:00:00 -0.7 0 Calma 5 Nordeste 0 -- -- 81
2020-01-08 05:00:00 -0.4 2 Nordeste 8 Nordeste 0 -- -- 81
2020-01-08 04:00:00 -0.2 2 Este 8 Nordeste 0 -- -- 80
2020-01-08 03:00:00 0.4 6 Nordeste 9 Nordeste 0 -- -- 78
2020-01-08 02:00:00 0.7 5 Nordeste 8 Nordeste 0 -- -- 79
2020-01-08 01:00:00 1.2 0 Calma 0 Calma 0 -- -- 83
2020-01-08 00:00:00 1.9 0 Calma 4 Sur 0 -- -- 81
2020-01-07 23:00:00 3.4 0 Calma 7 Norte 0 -- -- 74
2020-01-07 22:00:00 3.6 0 Calma 7 Nordeste 0 -- -- 73
2020-01-07 21:00:00 3.6 2 Nordeste 8 Nordeste 0 -- -- 70
2020-01-07 20:00:00 5.4 2 Nordeste 7 Nordeste 0 -- -- 66
2020-01-07 19:00:00 8.4 0 Calma 5 Norte 0 -- -- 59
2020-01-07 18:00:00 11.6 2 Noroeste 13 Noroeste 0 -- -- 51
2020-01-07 17:00:00 14.1 7 Noroeste 17 Noroeste 0 -- -- 42
2020-01-07 16:00:00 14.3 3 Noroeste 10 Sur 0 -- -- 46
2020-01-07 15:00:00 14 3 Sudoeste 10 Sudoeste 0 -- -- 53
2020-01-07 14:00:00 12.9 4 Sudoeste 11 Sudoeste 0 -- -- 58
2020-01-07 13:00:00 11.9 4 Sudoeste 9 Sudoeste 0 -- -- 57
2020-01-07 12:00:00 10 2 Norte 6 Norte 0 -- -- 54
2020-01-07 11:00:00 5.2 0 Calma 6 Noroeste 0 -- -- 74
2020-01-07 10:00:00 2.7 0 Calma 4 Nordeste 0 -- -- 80
2020-01-07 09:00:00 -0.3 2 Sudeste 9 Sudeste 0 -- -- 95
2020-01-07 08:00:00 -1.2 0 Calma 6 Nordeste 0 -- -- 89
2020-01-07 07:00:00 -1 3 Nordeste 8 Nordeste 0 -- -- 88
2020-01-07 06:00:00 -0.8 2 Nordeste 4 Nordeste 0 -- -- 89
2020-01-07 05:00:00 -0.8 0 Calma 3 Nordeste 0 -- -- 91
2020-01-07 04:00:00 -0.2 0 Calma 6 Nordeste 0 -- -- 88
2020-01-07 03:00:00 1 2 Nordeste 7 Nordeste 0 -- -- 82
2020-01-07 02:00:00 1.7 3 Nordeste 8 Nordeste 0 -- -- 83
2020-01-07 01:00:00 1.5 0 Calma 4 Nordeste 0 -- -- 90
2020-01-07 00:00:00 1.6 0 Calma 8 Nordeste 0 -- -- 90
2020-01-06 23:00:00 2.3 4 Nordeste 10 Nordeste 0 -- -- 91
2020-01-06 22:00:00 2.3 4 Nordeste 9 Nordeste 0 -- -- 90
2020-01-06 21:00:00 3.2 5 Nordeste 9 Nordeste 0 -- -- 86
2020-01-06 20:00:00 4.5 3 Este 6 Nordeste 0 -- -- 83
2020-01-06 19:00:00 6.6 3 Este 5 Nordeste 0 -- -- 77
2020-01-06 18:00:00 10 2 Sur 5 Sudoeste 0 -- -- 64
2020-01-06 17:00:00 11.6 2 Sudoeste 5 Noroeste 0 -- -- 56
2020-01-06 16:00:00 12.2 2 Noroeste 8 Sur 0 -- -- 57
2020-01-06 15:00:00 13.1 3 Sur 8 Sur 0 -- -- 54
2020-01-06 14:00:00 13 2 Oeste 6 Noroeste 0 -- -- 53
2020-01-06 13:00:00 11 2 Oeste 9 Noroeste 0 -- -- 62
2020-01-06 12:00:00 8.1 2 Norte 6 Noroeste 0 -- -- 66
2020-01-06 11:00:00 5.7 0 Calma 5 Sudoeste 0 -- -- 72
2020-01-06 10:00:00 4.1 0 Calma 5 Oeste 0 -- -- 75